Time;durP1;ratioP1;P1;durP2;ratioP2;P2;SDS_P1;SDS_P2;PMS_P1;PMS_P2;Temp;Humidity;BMP_temperature;BMP_pressure;BME280_temperature;BME280_humidity;BME280_pressure;Samples;Min_cycle;Max_cycle;Signal;HPM_P1;HPM_P2
2023/02/25 00:01:55;;;;;;;15.00;3.87;;;4.70;1.00;;;;;;6221427;23;20180;-83
2023/02/25 00:04:21;;;;;;;9.93;3.87;;;4.70;1.00;;;;;;6219913;23;20236;-83
2023/02/25 00:06:47;;;;;;;11.57;4.30;;;4.80;1.00;;;;;;6216799;23;20157;-84
2023/02/25 00:09:12;;;;;;;8.40;3.57;;;4.80;1.00;;;;;;6219244;23;20416;-84
2023/02/25 00:11:38;;;;;;;18.00;4.30;;;4.80;1.00;;;;;;6218686;23;20196;-84
2023/02/25 00:14:04;;;;;;;17.30;4.70;;;4.90;1.00;;;;;;6220382;23;20601;-84
2023/02/25 00:16:31;;;;;;;16.83;3.87;;;4.90;1.00;;;;;;6240270;23;20300;-85
2023/02/25 00:18:57;;;;;;;12.40;3.90;;;4.90;99.90;;;;;;6244514;23;20163;-84
2023/02/25 00:21:23;;;;;;;10.35;4.30;;;4.90;99.90;;;;;;6218474;23;20189;-84
2023/02/25 00:23:50;;;;;;;13.97;3.33;;;4.90;99.90;;;;;;6217634;23;20231;-84
2023/02/25 00:26:16;;;;;;;17.00;4.53;;;4.80;99.90;;;;;;6219038;23;20415;-85
2023/02/25 00:28:43;;;;;;;11.40;4.18;;;4.70;99.90;;;;;;6219476;23;20491;-84
2023/02/25 00:31:12;;;;;;;13.50;3.72;;;4.70;99.90;;;;;;6217661;23;20173;-84
2023/02/25 00:33:40;;;;;;;19.23;4.25;;;4.60;99.90;;;;;;6220427;23;20157;-84
2023/02/25 00:36:07;;;;;;;15.38;3.67;;;4.50;99.90;;;;;;6218290;23;20157;-83
2023/02/25 00:38:35;;;;;;;17.02;3.78;;;4.50;99.90;;;;;;6222649;23;20264;-84
2023/02/25 00:41:15;;;;;;;12.77;3.40;;;4.40;99.90;;;;;;6220379;23;20176;-84
2023/02/25 00:43:43;;;;;;;10.80;3.40;;;4.40;99.90;;;;;;6221649;23;20244;-85
2023/02/25 00:46:10;;;;;;;11.15;3.10;;;4.40;99.90;;;;;;6219199;23;20150;-85
2023/02/25 00:48:36;;;;;;;15.52;2.78;;;4.30;99.90;;;;;;6221679;23;20162;-84
2023/02/25 00:51:14;;;;;;;16.42;4.15;;;4.30;99.90;;;;;;6221208;23;20172;-85
2023/02/25 00:53:40;;;;;;;15.93;3.63;;;4.30;99.90;;;;;;6221079;23;20524;-84
2023/02/25 00:56:07;;;;;;;14.07;4.72;;;4.20;99.90;;;;;;6220994;23;20157;-84
2023/02/25 00:58:37;;;;;;;19.85;4.10;;;4.20;99.90;;;;;;6218550;23;20153;-84
2023/02/25 01:01:13;;;;;;;8.38;2.95;;;4.20;99.90;;;;;;6220219;23;20205;-84
2023/02/25 01:03:39;;;;;;;16.33;4.55;;;4.20;99.90;;;;;;6220237;23;20169;-84
2023/02/25 01:06:07;;;;;;;18.40;4.00;;;4.20;99.90;;;;;;6221253;23;20164;-84
2023/02/25 01:08:32;;;;;;;15.27;3.25;;;4.20;99.90;;;;;;6221440;23;20153;-84
2023/02/25 01:10:58;;;;;;;12.27;4.07;;;4.10;99.90;;;;;;6221620;23;20170;-84
2023/02/25 01:13:23;;;;;;;14.07;3.40;;;4.10;99.90;;;;;;6220678;23;20549;-84
2023/02/25 01:15:49;;;;;;;15.73;3.77;;;4.10;99.90;;;;;;6217118;23;20153;-84
2023/02/25 01:18:16;;;;;;;9.23;3.47;;;4.10;99.90;;;;;;6221567;23;20150;-84
2023/02/25 01:20:42;;;;;;;16.00;4.03;;;4.10;99.90;;;;;;6219857;23;20154;-83
2023/02/25 01:23:08;;;;;;;18.17;3.77;;;4.00;99.90;;;;;;6221877;23;20160;-85
2023/02/25 01:25:33;;;;;;;14.83;3.30;;;4.00;99.90;;;;;;6220716;23;20169;-83
2023/02/25 01:27:59;;;;;;;8.70;3.03;;;4.00;99.90;;;;;;6245240;23;20157;-84
2023/02/25 01:30:25;;;;;;;12.73;2.50;;;4.00;99.90;;;;;;6219421;23;20158;-84
2023/02/25 01:32:50;;;;;;;14.83;3.87;;;4.00;99.90;;;;;;6219612;23;20177;-84
2023/02/25 01:35:18;;;;;;;15.73;3.97;;;3.90;99.90;;;;;;6220525;23;20158;-84
2023/02/25 01:37:45;;;;;;;13.10;3.53;;;3.90;99.90;;;;;;6219540;23;20185;-83
2023/02/25 01:40:17;;;;;;;14.65;3.25;;;3.90;99.90;;;;;;6220006;23;20165;-85
2023/02/25 01:42:44;;;;;;;9.88;4.03;;;3.90;99.90;;;;;;6221059;23;20178;-85
2023/02/25 01:45:18;;;;;;;19.27;3.80;;;3.80;99.90;;;;;;6221607;23;20173;-84
2023/02/25 01:47:49;;;;;;;9.88;3.53;;;3.80;99.90;;;;;;6217618;23;20609;-84
2023/02/25 01:50:18;;;;;;;13.98;3.63;;;3.90;1.00;;;;;;6219739;23;20204;-84
2023/02/25 01:52:44;;;;;;;16.25;3.13;;;3.90;1.00;;;;;;6220236;23;20169;-82
2023/02/25 01:55:10;;;;;;;14.60;5.97;;;3.90;1.00;;;;;;6218466;23;20659;-84
2023/02/25 01:57:36;;;;;;;10.70;3.40;;;4.00;1.00;;;;;;6221588;23;20154;-84
2023/02/25 02:00:15;;;;;;;13.70;3.33;;;4.10;1.00;;;;;;6221485;23;20161;-84
2023/02/25 02:02:43;;;;;;;9.75;4.15;;;4.10;1.00;;;;;;6220442;23;20177;-84
2023/02/25 02:05:09;;;;;;;15.65;3.88;;;4.20;1.00;;;;;;6220522;23;20177;-84
2023/02/25 02:07:35;;;;;;;9.70;2.92;;;4.20;1.00;;;;;;6221274;23;20146;-84
2023/02/25 02:10:01;;;;;;;15.77;4.27;;;4.30;1.00;;;;;;6220491;23;20652;-84
2023/02/25 02:12:32;;;;;;;11.03;4.17;;;4.30;1.00;;;;;;6219473;23;20169;-85
2023/02/25 02:15:01;;;;;;;15.02;3.70;;;4.40;99.90;;;;;;6221108;23;20376;-84
2023/02/25 02:17:58;;;;;;;12.73;3.08;;;4.40;99.90;;;;;;6221546;23;20612;-84
2023/02/25 02:20:30;;;;;;;16.00;2.80;;;4.40;99.90;;;;;;6222059;23;20150;-85
2023/02/25 02:23:16;;;;;;;14.55;2.95;;;4.40;99.90;;;;;;6229570;23;20169;-81
2023/02/25 02:25:57;;;;;;;9.27;2.78;;;4.40;99.90;;;;;;6256970;23;20148;-84
2023/02/25 02:28:46;;;;;;;10.82;3.10;;;4.40;99.90;;;;;;6231518;23;20148;-84
2023/02/25 02:31:25;;;;;;;9.13;2.55;;;4.40;99.90;;;;;;6232643;23;20169;-84
2023/02/25 02:33:54;;;;;;;10.40;2.97;;;4.40;99.90;;;;;;6220390;23;20146;-83
2023/02/25 02:36:39;;;;;;;10.75;3.58;;;4.40;99.90;;;;;;6221542;23;20613;-85
2023/02/25 02:39:14;;;;;;;20.00;3.30;;;4.40;99.90;;;;;;6219760;23;20142;-83
2023/02/25 02:41:45;;;;;;;10.38;3.58;;;4.40;99.90;;;;;;6220278;23;20200;-84
2023/02/25 02:44:20;;;;;;;9.50;2.75;;;4.40;99.90;;;;;;6219187;23;20637;-84
2023/02/25 02:46:58;;;;;;;10.32;3.25;;;4.40;99.90;;;;;;6218948;23;20149;-84
2023/02/25 02:49:30;;;;;;;11.57;4.47;;;4.40;99.90;;;;;;6220977;23;20141;-83
2023/02/25 02:52:00;;;;;;;10.85;3.25;;;4.40;99.90;;;;;;6220382;23;20252;-83
2023/02/25 02:54:30;;;;;;;13.80;2.60;;;4.40;99.90;;;;;;6220434;23;20248;-84
2023/02/25 02:56:58;;;;;;;8.15;2.40;;;4.40;99.90;;;;;;6219472;23;20594;-84
2023/02/25 02:59:28;;;;;;;10.45;3.13;;;4.50;99.90;;;;;;6219603;23;20153;-84
2023/02/25 03:02:24;;;;;;;9.90;2.55;;;4.40;99.90;;;;;;6220240;23;20169;-84
2023/02/25 03:04:54;;;;;;;9.05;3.45;;;4.50;99.90;;;;;;6202774;23;20190;-83
2023/02/25 03:07:21;;;;;;;9.38;2.83;;;4.50;99.90;;;;;;6221572;23;20153;-85
2023/02/25 03:09:58;;;;;;;10.38;2.53;;;4.50;99.90;;;;;;6222165;23;20228;-85
2023/02/25 03:12:23;;;;;;;18.42;4.43;;;4.50;99.90;;;;;;6221846;23;20431;-84
2023/02/25 03:14:49;;;;;;;17.83;3.30;;;4.50;99.90;;;;;;6231558;23;20162;-83
2023/02/25 03:17:18;;;;;;;7.13;3.50;;;4.50;99.90;;;;;;6260846;23;20166;-85
2023/02/25 03:19:57;;;;;;;11.45;2.15;;;4.50;99.90;;;;;;6227148;23;20176;-84
2023/02/25 03:22:28;;;;;;;13.40;3.28;;;4.50;99.90;;;;;;6221154;23;20247;-84
2023/02/25 03:24:57;;;;;;;9.90;3.05;;;4.50;99.90;;;;;;6220120;23;20217;-84
2023/02/25 03:27:22;;;;;;;10.15;2.72;;;4.50;99.90;;;;;;6220613;23;20172;-85
2023/02/25 03:29:48;;;;;;;12.00;2.70;;;4.60;99.90;;;;;;6220497;23;20149;-84
2023/02/25 03:32:16;;;;;;;6.83;2.67;;;4.60;99.90;;;;;;6218965;23;20245;-84
2023/02/25 03:34:45;;;;;;;7.70;3.22;;;4.60;99.90;;;;;;6216290;23;20484;-84
2023/02/25 03:37:22;;;;;;;13.77;2.05;;;4.60;92.30;;;;;;6218785;23;20153;-84
2023/02/25 03:39:54;;;;;;;8.40;2.50;;;4.60;93.20;;;;;;6220561;23;20141;-84
2023/02/25 03:42:31;;;;;;;8.07;2.63;;;4.60;95.10;;;;;;6219743;23;20640;-84
2023/02/25 03:45:00;;;;;;;10.82;2.78;;;4.60;99.90;;;;;;6218701;23;20187;-83
2023/02/25 03:47:30;;;;;;;10.68;2.13;;;4.60;81.80;;;;;;6219438;23;20628;-85
2023/02/25 03:50:10;;;;;;;8.32;2.80;;;4.60;70.60;;;;;;6220272;23;20149;-84
2023/02/25 03:52:38;;;;;;;7.10;3.00;;;4.60;50.00;;;;;;6219544;23;20173;-85
2023/02/25 03:55:08;;;;;;;12.38;3.08;;;4.60;45.00;;;;;;6218354;23;20217;-83
2023/02/25 03:57:37;;;;;;;16.30;3.28;;;4.70;29.50;;;;;;6220037;23;20165;-84
2023/02/25 04:00:14;;;;;;;12.10;2.50;;;4.70;37.40;;;;;;6220577;23;20154;-83
2023/02/25 04:02:44;;;;;;;14.32;2.45;;;4.70;14.80;;;;;;6220853;23;20179;-85
2023/02/25 04:05:10;;;;;;;18.55;2.75;;;4.70;12.90;;;;;;6218863;23;20177;-85
2023/02/25 04:07:36;;;;;;;9.82;2.80;;;4.70;16.70;;;;;;6220212;23;20173;-84
2023/02/25 04:10:03;;;;;;;12.23;2.55;;;4.70;1.00;;;;;;6218310;23;20149;-84
2023/02/25 04:12:29;;;;;;;11.82;2.47;;;4.70;1.00;;;;;;6220968;23;20765;-84
2023/02/25 04:14:55;;;;;;;14.60;3.00;;;4.70;1.00;;;;;;6215884;23;20150;-82
2023/02/25 04:17:21;;;;;;;14.38;3.08;;;4.70;1.00;;;;;;6218883;23;20635;-85
2023/02/25 04:19:46;;;;;;;15.43;3.77;;;4.70;1.00;;;;;;6220180;23;20154;-85
2023/02/25 04:22:16;;;;;;;10.50;2.60;;;4.80;1.00;;;;;;6216881;23;20401;-84
2023/02/25 04:24:42;;;;;;;13.23;2.58;;;4.80;1.00;;;;;;6220132;23;20205;-84
2023/02/25 04:27:08;;;;;;;19.23;2.70;;;4.80;1.00;;;;;;6217228;23;20663;-83
2023/02/25 04:29:33;;;;;;;11.67;3.13;;;4.80;1.00;;;;;;6219823;23;20580;-83
2023/02/25 04:32:08;;;;;;;13.53;2.40;;;4.80;1.00;;;;;;6220061;23;20200;-85
2023/02/25 04:34:34;;;;;;;11.88;2.33;;;4.80;1.00;;;;;;6220665;23;20133;-85
2023/02/25 04:37:03;;;;;;;15.70;4.27;;;4.80;1.00;;;;;;6219818;23;20150;-84
2023/02/25 04:39:30;;;;;;;9.43;3.22;;;4.80;1.00;;;;;;6218514;23;20154;-84
2023/02/25 04:41:56;;;;;;;12.57;3.17;;;4.80;1.00;;;;;;6220188;23;20173;-84
2023/02/25 04:44:21;;;;;;;15.00;2.33;;;4.70;1.00;;;;;;6220527;23;20188;-84
2023/02/25 04:46:50;;;;;;;15.63;3.17;;;4.70;1.00;;;;;;6219539;23;20225;-85
2023/02/25 04:49:20;;;;;;;6.03;2.47;;;4.70;1.00;;;;;;6218724;23;20174;-85
2023/02/25 04:51:50;;;;;;;18.00;3.15;;;4.70;1.00;;;;;;6220919;23;20177;-85
2023/02/25 04:54:20;;;;;;;17.00;2.60;;;4.70;1.00;;;;;;6218510;23;20194;-84
2023/02/25 04:56:48;;;;;;;9.32;2.58;;;4.70;1.00;;;;;;6218913;23;20161;-85
2023/02/25 04:59:15;;;;;;;11.63;2.60;;;4.70;1.00;;;;;;6220988;23;20166;-84
2023/02/25 05:01:40;;;;;;;11.70;3.25;;;4.80;1.00;;;;;;6219606;23;20194;-85
2023/02/25 05:04:06;;;;;;;16.57;3.30;;;4.80;1.00;;;;;;6218099;23;20185;-84
2023/02/25 05:06:33;;;;;;;16.20;3.40;;;4.80;1.00;;;;;;6219643;23;20165;-83
2023/02/25 05:08:59;;;;;;;7.57;2.83;;;4.80;1.00;;;;;;6221020;23;20612;-84
2023/02/25 05:11:26;;;;;;;13.10;3.27;;;4.80;1.00;;;;;;6243010;22;20193;-85
2023/02/25 05:13:54;;;;;;;16.15;4.35;;;4.70;1.00;;;;;;6218040;23;20158;-84
2023/02/25 05:16:20;;;;;;;8.98;2.83;;;4.80;1.00;;;;;;6217548;23;20161;-85
2023/02/25 05:18:46;;;;;;;9.48;3.03;;;4.80;1.00;;;;;;6219589;23;20150;-84
2023/02/25 05:21:20;;;;;;;13.70;3.00;;;4.80;1.00;;;;;;6220252;23;20180;-85
2023/02/25 05:23:47;;;;;;;12.20;2.80;;;4.80;1.00;;;;;;6219772;23;20652;-84
2023/02/25 05:26:14;;;;;;;12.98;2.95;;;4.80;1.00;;;;;;6221572;23;20174;-84
2023/02/25 05:28:39;;;;;;;18.42;3.70;;;4.80;1.00;;;;;;6222258;23;20146;-85
2023/02/25 05:31:09;;;;;;;12.30;3.20;;;4.80;1.00;;;;;;6220036;23;20208;-84
2023/02/25 05:33:36;;;;;;;8.52;2.15;;;4.80;1.00;;;;;;6219166;23;20158;-83
2023/02/25 05:36:05;;;;;;;13.40;2.97;;;4.80;1.00;;;;;;6220950;23;20146;-84
2023/02/25 05:38:30;;;;;;;12.25;2.45;;;4.80;1.00;;;;;;6222003;23;20189;-84
2023/02/25 05:40:58;;;;;;;15.67;2.40;;;4.80;1.00;;;;;;6220095;23;20493;-84
2023/02/25 05:43:24;;;;;;;18.65;3.00;;;4.70;1.00;;;;;;6222883;23;20174;-85
2023/02/25 05:45:54;;;;;;;17.47;3.20;;;4.70;1.00;;;;;;6222028;23;20173;-85
2023/02/25 05:48:21;;;;;;;11.38;2.60;;;4.80;1.00;;;;;;6221379;23;20268;-85
2023/02/25 05:50:49;;;;;;;15.05;3.60;;;4.80;1.00;;;;;;6220852;23;20146;-85
2023/02/25 05:53:16;;;;;;;13.98;3.20;;;4.80;1.00;;;;;;6221534;23;20146;-85
2023/02/25 05:55:42;;;;;;;9.50;2.50;;;4.80;1.00;;;;;;6220585;23;20229;-85
2023/02/25 05:58:08;;;;;;;10.35;2.90;;;4.70;1.00;;;;;;6221697;23;20150;-84
2023/02/25 06:00:35;;;;;;;17.13;3.22;;;4.70;1.00;;;;;;6221368;23;20655;-83
2023/02/25 06:03:00;;;;;;;12.40;2.72;;;4.80;1.00;;;;;;6221748;23;20200;-84
2023/02/25 06:05:29;;;;;;;15.73;2.67;;;4.80;1.00;;;;;;6221926;23;20523;-84
2023/02/25 06:07:57;;;;;;;14.90;3.67;;;4.80;1.00;;;;;;6218556;23;20157;-84
2023/02/25 06:10:24;;;;;;;18.58;3.20;;;4.80;1.00;;;;;;6221338;23;20196;-83
2023/02/25 06:12:49;;;;;;;6.55;2.53;;;4.80;1.00;;;;;;6221213;23;20170;-84
2023/02/25 06:15:15;;;;;;;18.73;4.10;;;4.80;1.00;;;;;;6217367;23;20160;-83
2023/02/25 06:17:41;;;;;;;11.35;2.90;;;4.80;1.00;;;;;;6220376;23;20150;-83
2023/02/25 06:20:08;;;;;;;15.47;3.50;;;4.80;1.00;;;;;;6220889;23;20546;-84
2023/02/25 06:22:33;;;;;;;22.23;3.70;;;4.80;1.00;;;;;;6220166;23;20197;-84
2023/02/25 06:24:59;;;;;;;19.80;3.37;;;4.80;1.00;;;;;;6219387;23;20180;-85
2023/02/25 06:27:25;;;;;;;12.43;3.23;;;4.80;1.00;;;;;;6220343;23;20161;-85
2023/02/25 06:29:50;;;;;;;14.93;2.90;;;4.70;1.00;;;;;;6219707;23;20152;-85
2023/02/25 06:32:16;;;;;;;15.00;3.70;;;4.80;1.00;;;;;;6221520;23;20170;-84
2023/02/25 06:34:42;;;;;;;17.50;3.40;;;4.80;1.00;;;;;;6219383;23;20565;-84
2023/02/25 06:37:08;;;;;;;27.77;3.80;;;4.80;1.00;;;;;;6219758;23;20428;-84
2023/02/25 06:39:33;;;;;;;10.53;3.07;;;4.80;1.00;;;;;;6221029;23;20154;-85
2023/02/25 06:41:59;;;;;;;14.70;4.30;;;4.80;1.00;;;;;;6220299;23;20211;-85
2023/02/25 06:44:26;;;;;;;17.60;4.60;;;4.90;1.00;;;;;;6221554;23;20531;-84
2023/02/25 06:46:54;;;;;;;17.42;3.78;;;4.80;1.00;;;;;;6224779;23;20164;-84
2023/02/25 06:49:20;;;;;;;14.32;3.78;;;4.90;1.00;;;;;;6226402;23;20468;-83
2023/02/25 06:51:48;;;;;;;16.13;5.10;;;4.90;99.90;;;;;;6224342;23;20605;-84
2023/02/25 06:54:14;;;;;;;11.35;2.70;;;4.90;99.90;;;;;;6229835;23;20176;-84
2023/02/25 06:56:40;;;;;;;12.52;3.03;;;4.90;99.90;;;;;;6228171;23;20162;-84
2023/02/25 06:59:06;;;;;;;11.10;2.80;;;4.90;99.90;;;;;;6226874;23;20169;-82
2023/02/25 07:01:31;;;;;;;18.27;3.83;;;4.90;99.90;;;;;;6229383;23;20447;-82
2023/02/25 07:03:57;;;;;;;13.80;3.50;;;5.10;99.90;;;;;;6229052;23;20183;-84
2023/02/25 07:06:22;;;;;;;12.10;3.50;;;5.20;1.00;;;;;;6228909;23;20146;-82
2023/02/25 07:08:48;;;;;;;11.27;3.03;;;5.30;99.90;;;;;;6230040;23;20149;-82
2023/02/25 07:11:24;;;;;;;14.90;3.80;;;5.30;99.90;;;;;;6254496;22;20220;-82
2023/02/25 07:13:50;;;;;;;12.93;3.15;;;5.40;99.90;;;;;;6228856;23;20220;-82
2023/02/25 07:16:16;;;;;;;8.70;2.77;;;5.40;1.00;;;;;;6227825;23;20212;-82
2023/02/25 07:18:43;;;;;;;10.90;3.22;;;5.40;99.90;;;;;;6220827;23;20411;-84
2023/02/25 07:21:11;;;;;;;15.63;2.80;;;5.50;99.90;;;;;;6218334;23;20170;-84
2023/02/25 07:23:36;;;;;;;18.42;4.05;;;5.60;99.20;;;;;;6219079;23;20177;-83
2023/02/25 07:26:08;;;;;;;17.73;3.70;;;5.70;99.90;;;;;;6215383;23;20158;-83
2023/02/25 07:28:34;;;;;;;14.07;3.10;;;5.70;99.90;;;;;;6216390;23;20203;-83
2023/02/25 07:31:09;;;;;;;13.93;3.40;;;5.80;99.90;;;;;;6215591;23;20165;-82
2023/02/25 07:33:34;;;;;;;15.82;3.28;;;5.80;99.90;;;;;;6217734;23;20148;-83
2023/02/25 07:36:00;;;;;;;12.30;2.97;;;5.90;56.10;;;;;;6216706;23;20158;-83
2023/02/25 07:38:25;;;;;;;13.50;3.53;;;5.90;32.60;;;;;;6216566;23;20199;-83
2023/02/25 07:40:51;;;;;;;7.83;2.23;;;6.00;1.00;;;;;;6217854;23;20181;-83
2023/02/25 07:43:16;;;;;;;15.73;3.60;;;6.20;1.00;;;;;;6218200;23;20695;-83
2023/02/25 07:45:42;;;;;;;8.00;3.13;;;6.60;99.90;;;;;;6239606;23;20211;-83
2023/02/25 07:48:07;;;;;;;13.80;3.17;;;7.40;99.90;;;;;;6217564;23;20165;-84
2023/02/25 07:50:33;;;;;;;13.60;2.90;;;8.20;1.00;;;;;;6216606;23;20491;-83
2023/02/25 07:52:58;;;;;;;17.43;3.20;;;9.60;99.90;;;;;;6218995;23;20536;-84
2023/02/25 07:55:24;;;;;;;16.23;3.40;;;11.30;1.00;;;;;;6219094;23;20170;-85
2023/02/25 07:57:50;;;;;;;12.37;2.53;;;14.20;99.90;;;;;;6220633;23;20160;-85
2023/02/25 08:00:16;;;;;;;14.67;3.03;;;16.90;99.90;;;;;;6221417;23;20150;-85
2023/02/25 08:02:43;;;;;;;17.73;3.87;;;17.80;99.90;;;;;;6220499;23;20177;-84
2023/02/25 08:05:09;;;;;;;9.33;2.80;;;17.20;99.90;;;;;;6218274;23;20433;-84
2023/02/25 08:07:35;;;;;;;14.37;3.40;;;15.90;99.90;;;;;;6217668;23;20907;-84
2023/02/25 08:10:00;;;;;;;11.27;3.43;;;14.70;99.90;;;;;;6219378;23;20382;-84
2023/02/25 08:12:26;;;;;;;14.10;4.10;;;13.30;99.90;;;;;;6217813;23;20167;-84
2023/02/25 08:14:52;;;;;;;20.80;3.47;;;12.40;99.90;;;;;;6218837;23;20256;-84
2023/02/25 08:17:17;;;;;;;14.37;3.83;;;11.40;99.90;;;;;;6218650;23;20159;-83
2023/02/25 08:19:43;;;;;;;11.03;3.37;;;10.60;99.90;;;;;;6216697;23;20154;-84
2023/02/25 08:22:10;;;;;;;16.30;3.33;;;9.90;99.90;;;;;;6216026;23;20905;-83
2023/02/25 08:24:39;;;;;;;11.00;2.75;;;9.20;99.90;;;;;;6214437;23;20173;-84
2023/02/25 08:27:07;;;;;;;18.70;3.87;;;8.80;99.90;;;;;;6217504;23;20153;-84
2023/02/25 08:29:34;;;;;;;14.10;3.03;;;8.60;99.90;;;;;;6216444;23;20401;-83
2023/02/25 08:32:00;;;;;;;8.00;2.67;;;8.70;99.90;;;;;;6217581;23;20393;-83
2023/02/25 08:34:25;;;;;;;8.10;2.87;;;8.90;99.90;;;;;;6215412;23;20384;-84
2023/02/25 08:36:51;;;;;;;14.03;3.50;;;9.20;99.90;;;;;;6216880;23;20228;-83
2023/02/25 08:39:17;;;;;;;13.57;2.93;;;9.50;99.90;;;;;;6214724;23;20164;-83
2023/02/25 08:41:43;;;;;;;10.13;2.87;;;9.70;99.90;;;;;;6215720;23;20173;-83
2023/02/25 08:44:10;;;;;;;8.80;2.90;;;11.30;99.90;;;;;;6217287;23;20417;-83
2023/02/25 08:46:37;;;;;;;19.17;3.43;;;11.70;99.90;;;;;;6209672;23;20401;-85
2023/02/25 08:49:04;;;;;;;14.50;3.47;;;12.10;99.90;;;;;;6210920;23;20431;-84
2023/02/25 08:51:33;;;;;;;13.60;4.17;;;12.50;99.90;;;;;;6186054;23;20426;-84
2023/02/25 08:54:05;;;;;;;12.73;3.40;;;13.40;99.90;;;;;;6188872;23;20399;-84
2023/02/25 08:56:31;;;;;;;20.70;4.23;;;14.10;99.90;;;;;;6210184;23;20446;-84
2023/02/25 08:58:57;;;;;;;13.97;3.70;;;14.10;99.90;;;;;;6189540;23;20876;-83
2023/02/25 09:01:23;;;;;;;14.70;3.20;;;15.80;99.90;;;;;;6213110;23;20404;-83
2023/02/25 09:03:51;;;;;;;13.53;3.60;;;15.20;99.90;;;;;;6213243;23;20492;-83
2023/02/25 09:06:23;;;;;;;10.00;3.40;;;15.00;99.90;;;;;;6189779;23;20868;-84
2023/02/25 09:08:50;;;;;;;14.70;3.47;;;16.40;99.90;;;;;;6212052;23;20739;-84
2023/02/25 09:11:16;;;;;;;21.43;3.30;;;15.90;99.90;;;;;;6188957;23;20397;-85
2023/02/25 09:13:42;;;;;;;16.80;3.30;;;15.20;99.90;;;;;;6211986;23;20396;-85
2023/02/25 09:16:08;;;;;;;11.83;3.33;;;14.60;99.90;;;;;;6214218;23;20396;-84
2023/02/25 09:18:33;;;;;;;8.63;2.97;;;14.00;99.90;;;;;;6189328;23;20150;-84
2023/02/25 09:20:59;;;;;;;9.70;2.73;;;13.00;99.90;;;;;;6190602;23;20462;-84
2023/02/25 09:23:25;;;;;;;12.53;3.83;;;12.00;99.90;;;;;;6187642;23;20475;-84
2023/02/25 09:25:50;;;;;;;9.07;2.67;;;11.40;99.90;;;;;;6213026;23;20173;-84
2023/02/25 09:28:16;;;;;;;13.73;2.57;;;10.90;99.90;;;;;;6189986;23;20166;-84
2023/02/25 09:30:48;;;;;;;11.13;3.37;;;10.60;99.90;;;;;;6212422;23;20162;-84
2023/02/25 09:33:14;;;;;;;10.63;3.40;;;10.40;99.90;;;;;;6210866;23;20216;-85
2023/02/25 09:35:42;;;;;;;10.20;2.57;;;10.10;99.90;;;;;;6187925;23;20374;-85
2023/02/25 09:38:07;;;;;;;15.73;2.90;;;9.80;99.90;;;;;;6212270;23;20610;-84
2023/02/25 09:40:33;;;;;;;14.20;2.97;;;9.80;99.90;;;;;;6188842;23;20376;-84
2023/02/25 09:43:15;;;;;;;14.67;2.73;;;10.00;99.90;;;;;;6211036;23;20169;-85
2023/02/25 09:45:46;;;;;;;11.07;3.43;;;10.40;99.90;;;;;;6212448;23;20150;-85
2023/02/25 09:48:27;;;;;;;14.73;3.43;;;10.60;99.90;;;;;;6210240;23;20421;-85
2023/02/25 09:51:24;;;;;;;8.07;2.60;;;10.60;99.90;;;;;;6212681;23;20413;-85
2023/02/25 09:54:22;;;;;;;9.80;2.30;;;10.50;99.90;;;;;;6208048;23;20389;-85
2023/02/25 09:56:48;;;;;;;11.33;2.43;;;10.50;99.90;;;;;;6186927;23;20404;-85
2023/02/25 09:59:17;;;;;;;11.53;2.80;;;10.30;99.90;;;;;;6210504;23;20478;-85
2023/02/25 10:02:16;;;;;;;7.47;2.93;;;10.40;99.90;;;;;;6209922;23;20421;-84
2023/02/25 10:05:13;;;;;;;10.73;2.77;;;10.50;99.90;;;;;;6185663;23;20414;-83
2023/02/25 10:08:06;;;;;;;10.23;2.70;;;10.50;99.90;;;;;;6186289;23;20382;-84
2023/02/25 10:11:02;;;;;;;9.27;2.90;;;10.80;99.90;;;;;;6187529;23;20894;-84
2023/02/25 10:13:43;;;;;;;16.00;2.70;;;12.00;99.90;;;;;;6212131;23;20461;-85
2023/02/25 10:16:12;;;;;;;6.37;2.03;;;12.50;99.90;;;;;;6188568;23;20390;-86
2023/02/25 10:19:00;;;;;;;13.27;2.80;;;12.40;99.90;;;;;;6184675;23;20445;-83
2023/02/25 10:21:48;;;;;;;8.80;2.30;;;12.10;99.90;;;;;;6186691;23;20400;-85
2023/02/25 10:24:37;;;;;;;10.87;2.40;;;11.70;99.90;;;;;;6184584;23;20420;-83
2023/02/25 10:27:43;;;;;;;7.23;2.87;;;11.20;99.90;;;;;;6185742;23;20386;-84
2023/02/25 10:30:19;;;;;;;8.80;2.70;;;10.60;99.90;;;;;;6184389;23;20425;-84
2023/02/25 10:32:45;;;;;;;7.90;3.93;;;10.20;99.90;;;;;;6226402;23;20409;-85
2023/02/25 10:35:24;;;;;;;6.03;2.40;;;10.20;99.90;;;;;;6203571;23;20473;-86
2023/02/25 10:37:49;;;;;;;4.27;1.97;;;10.60;99.90;;;;;;6190707;23;20393;-85
2023/02/25 10:40:21;;;;;;;8.63;2.00;;;11.90;99.90;;;;;;6186901;23;20431;-84
2023/02/25 10:42:53;;;;;;;8.80;1.37;;;13.50;99.90;;;;;;6212713;23;20194;-84
2023/02/25 10:45:25;;;;;;;5.93;1.73;;;14.90;99.90;;;;;;6211828;23;20451;-85
2023/02/25 10:48:16;;;;;;;8.77;1.97;;;15.30;99.90;;;;;;6211288;23;20898;-84
2023/02/25 10:50:42;;;;;;;7.40;2.13;;;15.20;99.90;;;;;;6188663;23;20374;-84
2023/02/25 10:53:17;;;;;;;6.57;1.87;;;15.40;99.90;;;;;;6209424;23;20482;-84
2023/02/25 10:55:43;;;;;;;7.47;1.83;;;15.20;99.90;;;;;;6186822;23;20181;-85
2023/02/25 10:58:33;;;;;;;7.53;2.70;;;15.20;99.90;;;;;;6187323;23;20375;-85
2023/02/25 11:01:19;;;;;;;7.97;1.90;;;15.60;99.90;;;;;;6188510;23;20173;-85
2023/02/25 11:04:04;;;;;;;5.93;1.60;;;15.60;99.90;;;;;;6185806;23;20417;-83
2023/02/25 11:06:34;;;;;;;8.53;1.67;;;14.50;99.90;;;;;;6211783;23;20872;-85
2023/02/25 11:09:01;;;;;;;6.33;2.63;;;13.40;99.90;;;;;;6209128;23;20393;-85
2023/02/25 11:11:36;;;;;;;7.83;4.00;;;12.50;99.90;;;;;;6208104;23;20484;-83
2023/02/25 11:24:18;;;;;;;10.63;2.93;;;11.40;99.90;;;;;;6185181;23;20456;-84
2023/02/25 11:26:46;;;;;;;7.60;3.00;;;11.40;99.90;;;;;;6184240;23;20365;-83
2023/02/25 11:29:20;;;;;;;4.70;2.30;;;11.30;99.90;;;;;;6206926;23;20382;-82
2023/02/25 11:31:51;;;;;;;8.17;2.60;;;11.40;99.90;;;;;;6207725;23;20528;-83
2023/02/25 11:34:21;;;;;;;9.30;3.20;;;11.60;99.90;;;;;;6205772;23;20858;-84
2023/02/25 11:36:51;;;;;;;7.87;2.43;;;12.20;99.90;;;;;;6208956;23;20715;-84
2023/02/25 11:39:26;;;;;;;6.20;1.87;;;13.40;99.90;;;;;;6192981;23;20380;-82
2023/02/25 11:42:16;;;;;;;4.33;1.20;;;13.90;99.90;;;;;;6195824;23;20422;-84
2023/02/25 11:45:33;;;;;;;;;;;;;;;;;;;;;
2023/02/25 11:48:17;;;;;;;5.17;1.80;;;16.80;99.90;;;;;;6187689;23;20487;-85
2023/02/25 11:51:17;;;;;;;9.43;1.57;;;17.60;99.90;;;;;;6187408;23;20364;-85
2023/02/25 11:54:02;;;;;;;4.00;1.20;;;17.80;99.90;;;;;;6186441;23;20552;-84
2023/02/25 11:56:32;;;;;;;8.63;1.73;;;17.80;99.90;;;;;;6186086;23;20360;-84
2023/02/25 11:59:28;;;;;;;2.90;1.33;;;18.90;99.90;;;;;;6188521;23;20402;-85
2023/02/25 12:05:42;;;;;;;5.00;1.23;;;21.30;99.90;;;;;;6182319;23;20392;-84
2023/02/25 12:08:54;;;;;;;2.80;1.53;;;22.50;99.90;;;;;;6211108;23;20381;-84
2023/02/25 12:11:58;;;;;;;9.30;1.70;;;23.30;99.90;;;;;;6208426;23;20409;-84
2023/02/25 12:15:10;;;;;;;;;;;;;;;;;;;;;
2023/02/25 12:21:03;;;;;;;3.40;1.20;;;22.70;99.90;;;;;;6183480;23;20377;-85
2023/02/25 12:23:54;;;;;;;4.83;1.30;;;23.20;99.90;;;;;;6193451;23;20449;-85
2023/02/25 12:26:31;;;;;;;5.37;1.60;;;24.00;99.90;;;;;;6191863;23;20682;-84
2023/02/25 13:16:19;;;;;;;4.90;1.47;;;17.70;99.90;;;;;;6192097;23;20399;-84
2023/02/25 13:19:28;;;;;;;4.33;1.00;;;18.60;99.90;;;;;;6192020;23;20492;-85
2023/02/25 13:22:34;;;;;;;3.20;1.47;;;19.90;99.90;;;;;;6193645;23;20410;-86
2023/02/25 13:25:22;;;;;;;6.23;1.50;;;21.00;99.90;;;;;;6211614;23;20496;-85
2023/02/25 13:28:28;;;;;;;4.17;1.87;;;21.40;99.90;;;;;;6193533;23;20365;-85
2023/02/25 13:31:10;;;;;;;3.87;1.13;;;20.70;99.90;;;;;;6191900;23;20461;-85
2023/02/25 13:34:10;;;;;;;4.33;1.30;;;20.80;99.90;;;;;;6218068;23;20422;-85
2023/02/25 13:37:00;;;;;;;3.37;1.30;;;21.00;99.90;;;;;;6181052;23;20395;-85
2023/02/25 13:39:45;;;;;;;2.63;1.50;;;21.00;99.90;;;;;;6194587;23;20433;-84
2023/02/25 13:42:32;;;;;;;2.83;1.27;;;20.90;99.90;;;;;;6191604;23;20399;-84
2023/02/25 13:45:37;;;;;;;4.33;1.47;;;20.80;99.90;;;;;;6190235;23;20371;-85
2023/02/25 13:48:27;;;;;;;3.43;1.00;;;20.70;99.90;;;;;;6192029;23;20401;-85
2023/02/25 13:56:49;;;;;;;7.80;1.63;;;20.30;99.90;;;;;;6149186;22;20492;-84
2023/02/25 14:02:15;;;;;;;4.53;1.23;;;20.30;99.90;;;;;;6103255;22;20515;-83
2023/02/25 14:05:10;;;;;;;4.93;1.70;;;20.40;99.90;;;;;;6181084;23;20490;-86
2023/02/25 14:08:01;;;;;;;5.87;1.70;;;20.30;99.90;;;;;;6224367;23;20417;-85
2023/02/25 14:10:53;;;;;;;4.67;1.70;;;20.00;99.90;;;;;;6224999;23;20753;-84
2023/02/25 14:13:40;;;;;;;5.93;2.17;;;19.80;99.90;;;;;;6224568;23;20397;-84
2023/02/25 14:16:28;;;;;;;5.57;2.17;;;19.50;99.90;;;;;;6225848;23;20353;-85
2023/02/25 14:19:18;;;;;;;4.17;1.57;;;18.70;99.90;;;;;;6223934;23;20366;-83
2023/02/25 14:21:50;;;;;;;7.80;1.83;;;17.90;99.90;;;;;;6222516;23;20396;-85
2023/02/25 14:24:45;;;;;;;12.57;2.93;;;17.90;99.90;;;;;;6222885;23;20447;-85
2023/02/25 14:27:43;;;;;;;10.23;1.97;;;17.60;99.90;;;;;;6198171;23;20396;-86
2023/02/25 14:30:30;;;;;;;8.00;1.73;;;16.80;99.90;;;;;;6161001;23;20413;-83
2023/02/25 14:33:22;;;;;;;7.40;2.57;;;15.70;99.90;;;;;;6194525;23;20766;-83